sensor_id;sensor_type;location;lat;lon;timestamp;P1;durP1;ratioP1;P2;durP2;ratioP2
19609;SDS011;9952;47.122;-1.638;2023-02-03T00:01:36;25.60;;;12.37;;
19609;SDS011;9952;47.122;-1.638;2023-02-03T00:06:17;27.17;;;12.07;;
19609;SDS011;9952;47.122;-1.638;2023-02-03T00:10:58;35.33;;;13.50;;
19609;SDS011;9952;47.122;-1.638;2023-02-03T00:15:39;24.83;;;11.80;;
19609;SDS011;9952;47.122;-1.638;2023-02-03T00:20:21;25.90;;;11.93;;
19609;SDS011;9952;47.122;-1.638;2023-02-03T00:25:02;23.83;;;10.97;;
19609;SDS011;9952;47.122;-1.638;2023-02-03T00:29:43;23.13;;;11.83;;
19609;SDS011;9952;47.122;-1.638;2023-02-03T00:34:27;23.00;;;11.10;;
19609;SDS011;9952;47.122;-1.638;2023-02-03T00:39:11;26.87;;;12.73;;
19609;SDS011;9952;47.122;-1.638;2023-02-03T00:43:53;26.33;;;13.00;;
19609;SDS011;9952;47.122;-1.638;2023-02-03T00:48:33;24.87;;;13.57;;
19609;SDS011;9952;47.122;-1.638;2023-02-03T00:53:14;27.77;;;12.97;;
19609;SDS011;9952;47.122;-1.638;2023-02-03T00:57:55;22.57;;;11.73;;
19609;SDS011;9952;47.122;-1.638;2023-02-03T01:02:36;25.47;;;12.10;;
19609;SDS011;9952;47.122;-1.638;2023-02-03T01:07:16;21.30;;;12.13;;
19609;SDS011;9952;47.122;-1.638;2023-02-03T01:11:57;21.97;;;11.87;;
19609;SDS011;9952;47.122;-1.638;2023-02-03T01:16:38;26.10;;;11.60;;
19609;SDS011;9952;47.122;-1.638;2023-02-03T01:21:20;25.70;;;12.43;;
19609;SDS011;9952;47.122;-1.638;2023-02-03T01:26:07;22.47;;;11.60;;
19609;SDS011;9952;47.122;-1.638;2023-02-03T01:30:49;22.80;;;11.63;;
19609;SDS011;9952;47.122;-1.638;2023-02-03T01:35:30;23.70;;;12.57;;
19609;SDS011;9952;47.122;-1.638;2023-02-03T01:40:12;28.27;;;13.47;;
19609;SDS011;9952;47.122;-1.638;2023-02-03T01:44:53;25.43;;;11.73;;
19609;SDS011;9952;47.122;-1.638;2023-02-03T01:49:34;30.90;;;12.30;;
19609;SDS011;9952;47.122;-1.638;2023-02-03T01:54:17;26.53;;;12.83;;
19609;SDS011;9952;47.122;-1.638;2023-02-03T01:59:01;25.47;;;11.53;;
19609;SDS011;9952;47.122;-1.638;2023-02-03T02:03:47;27.97;;;11.00;;
19609;SDS011;9952;47.122;-1.638;2023-02-03T02:08:33;26.00;;;11.70;;
19609;SDS011;9952;47.122;-1.638;2023-02-03T02:13:15;25.07;;;10.67;;
19609;SDS011;9952;47.122;-1.638;2023-02-03T02:43:44;19.07;;;9.53;;
19609;SDS011;9952;47.122;-1.638;2023-02-03T02:48:41;22.87;;;10.77;;
19609;SDS011;9952;47.122;-1.638;2023-02-03T02:53:24;20.27;;;8.90;;
19609;SDS011;9952;47.122;-1.638;2023-02-03T02:58:09;18.23;;;9.43;;
19609;SDS011;9952;47.122;-1.638;2023-02-03T03:02:53;19.83;;;9.53;;
19609;SDS011;9952;47.122;-1.638;2023-02-03T03:07:35;17.83;;;9.20;;
19609;SDS011;9952;47.122;-1.638;2023-02-03T03:12:28;14.70;;;8.33;;
19609;SDS011;9952;47.122;-1.638;2023-02-03T03:17:12;19.80;;;8.43;;
19609;SDS011;9952;47.122;-1.638;2023-02-03T03:22:00;18.53;;;9.03;;
19609;SDS011;9952;47.122;-1.638;2023-02-03T03:31:54;23.27;;;9.57;;
19609;SDS011;9952;47.122;-1.638;2023-02-03T03:36:42;23.00;;;9.00;;
19609;SDS011;9952;47.122;-1.638;2023-02-03T03:42:23;25.27;;;8.43;;
19609;SDS011;9952;47.122;-1.638;2023-02-03T03:46:50;22.70;;;8.80;;
19609;SDS011;9952;47.122;-1.638;2023-02-03T03:51:55;20.23;;;8.50;;
19609;SDS011;9952;47.122;-1.638;2023-02-03T03:56:47;15.73;;;8.07;;
19609;SDS011;9952;47.122;-1.638;2023-02-03T04:01:38;15.77;;;7.63;;
19609;SDS011;9952;47.122;-1.638;2023-02-03T04:06:20;15.20;;;7.93;;
19609;SDS011;9952;47.122;-1.638;2023-02-03T04:11:00;14.80;;;7.30;;
19609;SDS011;9952;47.122;-1.638;2023-02-03T04:15:41;16.73;;;7.00;;
19609;SDS011;9952;47.122;-1.638;2023-02-03T04:20:25;11.07;;;6.53;;
19609;SDS011;9952;47.122;-1.638;2023-02-03T04:25:06;15.63;;;6.90;;
19609;SDS011;9952;47.122;-1.638;2023-02-03T04:29:47;11.90;;;5.80;;
19609;SDS011;9952;47.122;-1.638;2023-02-03T04:34:29;13.27;;;5.83;;
19609;SDS011;9952;47.122;-1.638;2023-02-03T04:39:10;13.57;;;5.57;;
19609;SDS011;9952;47.122;-1.638;2023-02-03T04:43:51;13.30;;;6.07;;
19609;SDS011;9952;47.122;-1.638;2023-02-03T04:48:32;16.57;;;6.20;;
19609;SDS011;9952;47.122;-1.638;2023-02-03T04:53:12;10.80;;;5.83;;
19609;SDS011;9952;47.122;-1.638;2023-02-03T04:57:54;13.90;;;6.00;;
19609;SDS011;9952;47.122;-1.638;2023-02-03T05:02:35;11.57;;;6.27;;
19609;SDS011;9952;47.122;-1.638;2023-02-03T05:07:16;12.90;;;5.77;;
19609;SDS011;9952;47.122;-1.638;2023-02-03T05:11:57;12.93;;;6.57;;
19609;SDS011;9952;47.122;-1.638;2023-02-03T05:16:38;11.07;;;6.47;;
19609;SDS011;9952;47.122;-1.638;2023-02-03T05:21:19;12.73;;;6.10;;
19609;SDS011;9952;47.122;-1.638;2023-02-03T05:26:00;18.30;;;6.73;;
19609;SDS011;9952;47.122;-1.638;2023-02-03T05:30:40;15.43;;;6.57;;
19609;SDS011;9952;47.122;-1.638;2023-02-03T05:35:21;14.00;;;6.37;;
19609;SDS011;9952;47.122;-1.638;2023-02-03T05:40:02;16.83;;;6.43;;
19609;SDS011;9952;47.122;-1.638;2023-02-03T05:45:02;14.70;;;6.20;;
19609;SDS011;9952;47.122;-1.638;2023-02-03T05:49:43;15.50;;;7.60;;
19609;SDS011;9952;47.122;-1.638;2023-02-03T05:54:23;13.87;;;7.33;;
19609;SDS011;9952;47.122;-1.638;2023-02-03T05:59:04;19.57;;;8.60;;
19609;SDS011;9952;47.122;-1.638;2023-02-03T06:03:45;15.33;;;8.70;;
19609;SDS011;9952;47.122;-1.638;2023-02-03T06:08:27;20.37;;;10.80;;
19609;SDS011;9952;47.122;-1.638;2023-02-03T06:13:08;15.77;;;9.17;;
19609;SDS011;9952;47.122;-1.638;2023-02-03T06:17:51;18.17;;;8.80;;
19609;SDS011;9952;47.122;-1.638;2023-02-03T06:22:32;15.90;;;7.17;;
19609;SDS011;9952;47.122;-1.638;2023-02-03T06:27:16;15.07;;;8.27;;
19609;SDS011;9952;47.122;-1.638;2023-02-03T06:31:56;16.17;;;8.07;;
19609;SDS011;9952;47.122;-1.638;2023-02-03T06:36:37;21.87;;;9.80;;
19609;SDS011;9952;47.122;-1.638;2023-02-03T06:41:18;21.57;;;10.83;;
19609;SDS011;9952;47.122;-1.638;2023-02-03T06:45:59;15.37;;;9.00;;
19609;SDS011;9952;47.122;-1.638;2023-02-03T06:50:40;14.20;;;7.80;;
19609;SDS011;9952;47.122;-1.638;2023-02-03T06:55:20;17.47;;;9.00;;
19609;SDS011;9952;47.122;-1.638;2023-02-03T07:00:02;17.23;;;8.93;;
19609;SDS011;9952;47.122;-1.638;2023-02-03T07:04:43;27.60;;;11.20;;
19609;SDS011;9952;47.122;-1.638;2023-02-03T07:09:24;22.60;;;10.53;;
19609;SDS011;9952;47.122;-1.638;2023-02-03T07:14:05;21.17;;;11.47;;
19609;SDS011;9952;47.122;-1.638;2023-02-03T07:18:45;29.50;;;13.33;;
19609;SDS011;9952;47.122;-1.638;2023-02-03T07:23:26;32.27;;;13.30;;
19609;SDS011;9952;47.122;-1.638;2023-02-03T07:28:07;31.13;;;14.50;;
